sensor_id;sensor_type;location;lat;lon;timestamp;pressure;altitude;pressure_sealevel;temperature;humidity
69402;BME280;56589;51.992;5.924;2022-08-16T00:00:33;100069.13;;;22.29;52.83
69402;BME280;56589;51.992;5.924;2022-08-16T00:03:03;100071.53;;;22.24;52.99
69402;BME280;56589;51.992;5.924;2022-08-16T00:05:30;100070.47;;;22.19;53.65
69402;BME280;56589;51.992;5.924;2022-08-16T00:07:59;100077.41;;;22.13;53.86
69402;BME280;56589;51.992;5.924;2022-08-16T00:10:27;100080.84;;;22.07;53.64
69402;BME280;56589;51.992;5.924;2022-08-16T00:12:55;100088.41;;;22.03;53.75
69402;BME280;56589;51.992;5.924;2022-08-16T00:15:26;100076.44;;;21.99;53.72
69402;BME280;56589;51.992;5.924;2022-08-16T00:17:55;100082.19;;;21.96;53.97
69402;BME280;56589;51.992;5.924;2022-08-16T00:20:21;100081.25;;;21.89;54.49
69402;BME280;56589;51.992;5.924;2022-08-16T00:22:47;100088.00;;;21.85;54.15
69402;BME280;56589;51.992;5.924;2022-08-16T00:25:18;100085.25;;;21.78;54.89
69402;BME280;56589;51.992;5.924;2022-08-16T00:27:45;100081.28;;;21.74;54.55
69402;BME280;56589;51.992;5.924;2022-08-16T00:30:13;100083.88;;;21.68;54.93
69402;BME280;56589;51.992;5.924;2022-08-16T00:32:43;100084.63;;;21.62;55.14
69402;BME280;56589;51.992;5.924;2022-08-16T00:35:13;100091.72;;;21.55;55.36
69402;BME280;56589;51.992;5.924;2022-08-16T00:37:42;100088.97;;;21.48;55.40
69402;BME280;56589;51.992;5.924;2022-08-16T00:40:10;100094.88;;;21.43;55.68
69402;BME280;56589;51.992;5.924;2022-08-16T00:42:41;100094.41;;;21.40;56.00
69402;BME280;56589;51.992;5.924;2022-08-16T00:45:22;100090.47;;;21.36;56.11
69402;BME280;56589;51.992;5.924;2022-08-16T00:47:54;100081.97;;;21.32;55.83
69402;BME280;56589;51.992;5.924;2022-08-16T00:50:22;100085.03;;;21.29;56.15
69402;BME280;56589;51.992;5.924;2022-08-16T00:52:50;100079.41;;;21.24;56.48
69402;BME280;56589;51.992;5.924;2022-08-16T00:55:17;100079.78;;;21.21;56.71
69402;BME280;56589;51.992;5.924;2022-08-16T00:57:48;100081.19;;;21.17;56.29
69402;BME280;56589;51.992;5.924;2022-08-16T01:00:19;100079.88;;;21.13;56.61
69402;BME280;56589;51.992;5.924;2022-08-16T01:02:46;100078.53;;;21.09;56.53
69402;BME280;56589;51.992;5.924;2022-08-16T01:05:12;100079.56;;;21.08;57.00
69402;BME280;56589;51.992;5.924;2022-08-16T01:07:39;100076.44;;;21.04;56.88
69402;BME280;56589;51.992;5.924;2022-08-16T01:10:07;100083.97;;;21.00;56.69
69402;BME280;56589;51.992;5.924;2022-08-16T01:12:33;100078.34;;;20.95;56.58
69402;BME280;56589;51.992;5.924;2022-08-16T01:15:02;100079.75;;;20.91;57.39
69402;BME280;56589;51.992;5.924;2022-08-16T01:17:30;100076.59;;;20.88;57.25
69402;BME280;56589;51.992;5.924;2022-08-16T01:20:00;100080.28;;;20.87;57.26
69402;BME280;56589;51.992;5.924;2022-08-16T01:22:35;100076.13;;;20.84;57.41
69402;BME280;56589;51.992;5.924;2022-08-16T01:25:14;100074.66;;;20.82;57.51
69402;BME280;56589;51.992;5.924;2022-08-16T01:27:48;100074.88;;;20.80;57.88
69402;BME280;56589;51.992;5.924;2022-08-16T01:30:19;100075.69;;;20.81;57.90
69402;BME280;56589;51.992;5.924;2022-08-16T01:32:50;100072.19;;;20.80;57.79
69402;BME280;56589;51.992;5.924;2022-08-16T01:35:20;100075.03;;;20.79;57.99
69402;BME280;56589;51.992;5.924;2022-08-16T01:37:51;100074.03;;;20.80;58.27
69402;BME280;56589;51.992;5.924;2022-08-16T01:40:24;100079.38;;;20.80;58.23
69402;BME280;56589;51.992;5.924;2022-08-16T01:42:52;100075.50;;;20.82;58.22
69402;BME280;56589;51.992;5.924;2022-08-16T01:45:19;100079.00;;;20.83;58.00
69402;BME280;56589;51.992;5.924;2022-08-16T01:47:48;100081.47;;;20.84;57.87
69402;BME280;56589;51.992;5.924;2022-08-16T01:50:15;100069.16;;;20.83;58.21
69402;BME280;56589;51.992;5.924;2022-08-16T01:52:42;100076.97;;;20.85;57.84
69402;BME280;56589;51.992;5.924;2022-08-16T01:55:09;100069.97;;;20.84;58.06
69402;BME280;56589;51.992;5.924;2022-08-16T01:57:37;100074.47;;;20.83;58.16
69402;BME280;56589;51.992;5.924;2022-08-16T02:00:07;100068.50;;;20.81;58.06
69402;BME280;56589;51.992;5.924;2022-08-16T02:02:34;100074.03;;;20.80;57.66
69402;BME280;56589;51.992;5.924;2022-08-16T02:05:00;100069.03;;;20.77;57.86
69402;BME280;56589;51.992;5.924;2022-08-16T02:07:26;100071.44;;;20.71;57.93
69402;BME280;56589;51.992;5.924;2022-08-16T02:09:52;100070.78;;;20.69;58.12
69402;BME280;56589;51.992;5.924;2022-08-16T02:12:18;100076.47;;;20.66;58.29
69402;BME280;56589;51.992;5.924;2022-08-16T02:14:47;100076.66;;;20.65;58.57
69402;BME280;56589;51.992;5.924;2022-08-16T02:17:13;100083.84;;;20.64;58.50
69402;BME280;56589;51.992;5.924;2022-08-16T02:19:41;100076.03;;;20.63;58.96
69402;BME280;56589;51.992;5.924;2022-08-16T02:22:12;100084.22;;;20.61;59.02
69402;BME280;56589;51.992;5.924;2022-08-16T02:24:41;100076.56;;;20.58;58.93
69402;BME280;56589;51.992;5.924;2022-08-16T02:27:07;100074.91;;;20.57;58.86
69402;BME280;56589;51.992;5.924;2022-08-16T02:29:33;100069.09;;;20.54;59.18
69402;BME280;56589;51.992;5.924;2022-08-16T02:32:03;100068.63;;;20.50;59.25
69402;BME280;56589;51.992;5.924;2022-08-16T02:34:30;100072.66;;;20.46;59.27
69402;BME280;56589;51.992;5.924;2022-08-16T02:36:56;100066.03;;;20.42;59.41
69402;BME280;56589;51.992;5.924;2022-08-16T02:39:25;100065.56;;;20.38;59.69
69402;BME280;56589;51.992;5.924;2022-08-16T02:41:51;100065.09;;;20.35;59.60
69402;BME280;56589;51.992;5.924;2022-08-16T02:44:18;100060.31;;;20.30;59.35
69402;BME280;56589;51.992;5.924;2022-08-16T02:46:44;100067.97;;;20.25;59.57
69402;BME280;56589;51.992;5.924;2022-08-16T02:49:13;100060.31;;;20.22;59.48
69402;BME280;56589;51.992;5.924;2022-08-16T02:51:40;100067.88;;;20.18;60.07
69402;BME280;56589;51.992;5.924;2022-08-16T02:54:09;100063.69;;;20.16;60.23
69402;BME280;56589;51.992;5.924;2022-08-16T02:56:37;100062.88;;;20.15;60.22
69402;BME280;56589;51.992;5.924;2022-08-16T02:59:04;100057.91;;;20.12;60.53
69402;BME280;56589;51.992;5.924;2022-08-16T03:01:31;100061.56;;;20.11;60.00
69402;BME280;56589;51.992;5.924;2022-08-16T03:03:58;100058.91;;;20.11;60.51
69402;BME280;56589;51.992;5.924;2022-08-16T03:06:27;100058.06;;;20.11;60.46
69402;BME280;56589;51.992;5.924;2022-08-16T03:08:53;100053.56;;;20.11;60.71
69402;BME280;56589;51.992;5.924;2022-08-16T03:11:19;100058.06;;;20.11;60.71
69402;BME280;56589;51.992;5.924;2022-08-16T03:13:47;100059.44;;;20.07;60.78
69402;BME280;56589;51.992;5.924;2022-08-16T03:16:14;100059.78;;;20.04;60.87
69402;BME280;56589;51.992;5.924;2022-08-16T03:18:40;100055.84;;;20.00;61.17
69402;BME280;56589;51.992;5.924;2022-08-16T03:21:06;100060.50;;;19.98;61.13
69402;BME280;56589;51.992;5.924;2022-08-16T03:23:35;100059.22;;;19.93;61.44
69402;BME280;56589;51.992;5.924;2022-08-16T03:26:01;100054.41;;;19.89;61.44
69402;BME280;56589;51.992;5.924;2022-08-16T03:28:27;100048.78;;;19.84;61.19
69402;BME280;56589;51.992;5.924;2022-08-16T03:30:53;100051.97;;;19.79;61.41
69402;BME280;56589;51.992;5.924;2022-08-16T03:33:18;100050.50;;;19.77;61.77
69402;BME280;56589;51.992;5.924;2022-08-16T03:35:44;100057.34;;;19.71;61.53
69402;BME280;56589;51.992;5.924;2022-08-16T03:38:12;100053.38;;;19.67;61.52
69402;BME280;56589;51.992;5.924;2022-08-16T03:40:43;100056.72;;;19.61;62.00
69402;BME280;56589;51.992;5.924;2022-08-16T03:43:10;100060.75;;;19.57;62.20
69402;BME280;56589;51.992;5.924;2022-08-16T03:45:39;100055.59;;;19.55;62.42
69402;BME280;56589;51.992;5.924;2022-08-16T03:48:06;100056.78;;;19.53;62.16
69402;BME280;56589;51.992;5.924;2022-08-16T03:50:33;100065.09;;;19.50;62.19
69402;BME280;56589;51.992;5.924;2022-08-16T03:52:59;100060.13;;;19.47;62.29
69402;BME280;56589;51.992;5.924;2022-08-16T03:55:25;100055.00;;;19.45;62.66
69402;BME280;56589;51.992;5.924;2022-08-16T03:57:54;100056.78;;;19.45;62.53
69402;BME280;56589;51.992;5.924;2022-08-16T04:00:22;100059.13;;;19.39;62.55
69402;BME280;56589;51.992;5.924;2022-08-16T04:02:51;100059.31;;;19.38;62.78
69402;BME280;56589;51.992;5.924;2022-08-16T04:05:18;100067.81;;;19.33;62.60
69402;BME280;56589;51.992;5.924;2022-08-16T04:07:44;100074.47;;;19.29;62.34
69402;BME280;56589;51.992;5.924;2022-08-16T04:10:11;100074.66;;;19.28;63.00
69402;BME280;56589;51.992;5.924;2022-08-16T04:12:40;100073.00;;;19.27;63.48
69402;BME280;56589;51.992;5.924;2022-08-16T04:15:13;100083.16;;;19.23;63.17
69402;BME280;56589;51.992;5.924;2022-08-16T04:17:41;100079.00;;;19.21;63.63
69402;BME280;56589;51.992;5.924;2022-08-16T04:20:10;100086.16;;;19.20;63.58
69402;BME280;56589;51.992;5.924;2022-08-16T04:22:37;100088.66;;;19.22;63.47
69402;BME280;56589;51.992;5.924;2022-08-16T04:25:04;100088.66;;;19.22;63.44
69402;BME280;56589;51.992;5.924;2022-08-16T04:27:30;100088.97;;;19.19;63.73
69402;BME280;56589;51.992;5.924;2022-08-16T04:29:56;100098.78;;;19.18;64.08
69402;BME280;56589;51.992;5.924;2022-08-16T04:32:25;100093.81;;;19.15;64.15
69402;BME280;56589;51.992;5.924;2022-08-16T04:34:51;100095.81;;;19.13;63.66
69402;BME280;56589;51.992;5.924;2022-08-16T04:37:17;100102.97;;;19.12;63.97
69402;BME280;56589;51.992;5.924;2022-08-16T04:39:43;100105.47;;;19.14;64.04
69402;BME280;56589;51.992;5.924;2022-08-16T04:42:08;100113.75;;;19.19;64.55
69402;BME280;56589;51.992;5.924;2022-08-16T04:44:34;100120.91;;;19.27;64.33
69402;BME280;56589;51.992;5.924;2022-08-16T04:47:00;100117.72;;;19.31;64.65
69402;BME280;56589;51.992;5.924;2022-08-16T04:49:28;100120.69;;;19.36;64.92
69402;BME280;56589;51.992;5.924;2022-08-16T04:51:54;100121.84;;;19.42;64.40
69402;BME280;56589;51.992;5.924;2022-08-16T04:54:19;100126.34;;;19.50;64.79
69402;BME280;56589;51.992;5.924;2022-08-16T04:56:45;100124.31;;;19.60;64.69
69402;BME280;56589;51.992;5.924;2022-08-16T04:59:11;100125.59;;;19.72;64.39
69402;BME280;56589;51.992;5.924;2022-08-16T05:01:37;100130.84;;;19.88;64.74
69402;BME280;56589;51.992;5.924;2022-08-16T05:04:03;100126.91;;;20.07;64.95
69402;BME280;56589;51.992;5.924;2022-08-16T05:06:31;100130.47;;;20.31;64.24
69402;BME280;56589;51.992;5.924;2022-08-16T05:08:57;100126.63;;;20.48;64.20
69402;BME280;56589;51.992;5.924;2022-08-16T05:11:23;100131.03;;;20.64;63.83
69402;BME280;56589;51.992;5.924;2022-08-16T05:13:49;100134.44;;;20.72;62.92
69402;BME280;56589;51.992;5.924;2022-08-16T05:16:18;100123.03;;;20.79;63.15
69402;BME280;56589;51.992;5.924;2022-08-16T05:18:46;100131.34;;;20.84;62.59
69402;BME280;56589;51.992;5.924;2022-08-16T05:21:12;100135.22;;;20.81;62.10
69402;BME280;56589;51.992;5.924;2022-08-16T05:23:40;100135.41;;;20.80;62.26
69402;BME280;56589;51.992;5.924;2022-08-16T05:26:06;100139.06;;;20.79;61.99
69402;BME280;56589;51.992;5.924;2022-08-16T05:28:32;100140.91;;;20.78;61.93
69402;BME280;56589;51.992;5.924;2022-08-16T05:30:58;100140.63;;;20.73;61.82
69402;BME280;56589;51.992;5.924;2022-08-16T05:33:24;100148.97;;;20.70;62.01
69402;BME280;56589;51.992;5.924;2022-08-16T05:35:49;100145.69;;;20.68;62.32
69402;BME280;56589;51.992;5.924;2022-08-16T05:38:16;100146.50;;;20.68;62.31
69402;BME280;56589;51.992;5.924;2022-08-16T05:40:44;100146.78;;;20.73;62.32
69402;BME280;56589;51.992;5.924;2022-08-16T05:43:10;100144.53;;;20.85;62.32
69402;BME280;56589;51.992;5.924;2022-08-16T05:45:36;100149.56;;;21.18;62.90
69402;BME280;56589;51.992;5.924;2022-08-16T05:48:03;100156.84;;;21.68;62.35
69402;BME280;56589;51.992;5.924;2022-08-16T05:50:29;100151.00;;;22.30;61.05
69402;BME280;56589;51.992;5.924;2022-08-16T05:52:55;100151.03;;;22.95;60.04
69402;BME280;56589;51.992;5.924;2022-08-16T05:55:20;100151.66;;;23.59;58.80
69402;BME280;56589;51.992;5.924;2022-08-16T05:57:49;100161.41;;;24.22;57.30
69402;BME280;56589;51.992;5.924;2022-08-16T06:00:15;100163.56;;;24.72;56.03
69402;BME280;56589;51.992;5.924;2022-08-16T06:02:41;100161.69;;;25.19;54.78
69402;BME280;56589;51.992;5.924;2022-08-16T06:05:08;100158.72;;;25.67;53.94
69402;BME280;56589;51.992;5.924;2022-08-16T06:07:34;100153.59;;;26.11;52.87
69402;BME280;56589;51.992;5.924;2022-08-16T06:10:00;100163.91;;;26.52;51.45
69402;BME280;56589;51.992;5.924;2022-08-16T06:12:26;100164.41;;;26.92;51.35
69402;BME280;56589;51.992;5.924;2022-08-16T06:14:58;100170.06;;;27.34;49.61
69402;BME280;56589;51.992;5.924;2022-08-16T06:17:25;100166.13;;;27.73;49.20
69402;BME280;56589;51.992;5.924;2022-08-16T06:19:51;100169.25;;;28.07;47.83
69402;BME280;56589;51.992;5.924;2022-08-16T06:22:17;100171.41;;;28.47;47.00
69402;BME280;56589;51.992;5.924;2022-08-16T06:24:43;100175.81;;;28.83;46.03
69402;BME280;56589;51.992;5.924;2022-08-16T06:27:09;100184.78;;;29.07;45.08
69402;BME280;56589;51.992;5.924;2022-08-16T06:29:35;100176.44;;;29.32;44.79
69402;BME280;56589;51.992;5.924;2022-08-16T06:32:03;100185.38;;;29.56;44.04
69402;BME280;56589;51.992;5.924;2022-08-16T06:34:31;100184.78;;;29.77;43.21
69402;BME280;56589;51.992;5.924;2022-08-16T06:36:57;100183.03;;;29.99;42.40
69402;BME280;56589;51.992;5.924;2022-08-16T06:39:22;100180.66;;;30.15;42.26
69402;BME280;56589;51.992;5.924;2022-08-16T06:41:48;100184.16;;;30.27;41.52
69402;BME280;56589;51.992;5.924;2022-08-16T06:44:14;100186.66;;;30.45;40.55
69402;BME280;56589;51.992;5.924;2022-08-16T06:46:40;100188.88;;;30.48;40.24
69402;BME280;56589;51.992;5.924;2022-08-16T06:49:09;100190.69;;;30.60;40.36
69402;BME280;56589;51.992;5.924;2022-08-16T06:51:37;100193.97;;;30.78;39.69
69402;BME280;56589;51.992;5.924;2022-08-16T06:54:05;100185.97;;;30.83;38.90
69402;BME280;56589;51.992;5.924;2022-08-16T06:56:33;100188.13;;;30.81;39.07
69402;BME280;56589;51.992;5.924;2022-08-16T06:58:59;100190.09;;;30.86;39.33
69402;BME280;56589;51.992;5.924;2022-08-16T07:01:25;100197.47;;;31.07;38.80
69402;BME280;56589;51.992;5.924;2022-08-16T07:03:52;100189.81;;;31.21;38.32
69402;BME280;56589;51.992;5.924;2022-08-16T07:06:21;100201.88;;;31.30;37.68
69402;BME280;56589;51.992;5.924;2022-08-16T07:08:48;100202.97;;;31.29;37.24
69402;BME280;56589;51.992;5.924;2022-08-16T07:11:15;100203.22;;;30.94;37.01
69402;BME280;56589;51.992;5.924;2022-08-16T07:13:42;100199.91;;;30.30;37.58
69402;BME280;56589;51.992;5.924;2022-08-16T07:16:10;100195.13;;;29.68;38.64
69402;BME280;56589;51.992;5.924;2022-08-16T07:18:38;100210.78;;;29.19;39.49
69402;BME280;56589;51.992;5.924;2022-08-16T07:21:04;100202.38;;;28.74;39.66
69402;BME280;56589;51.992;5.924;2022-08-16T07:23:33;100202.81;;;28.29;40.41
69402;BME280;56589;51.992;5.924;2022-08-16T07:25:58;100207.34;;;27.99;40.82
69402;BME280;56589;51.992;5.924;2022-08-16T07:28:24;100211.13;;;27.73;41.02
69402;BME280;56589;51.992;5.924;2022-08-16T07:30:50;100202.53;;;27.46;42.01
69402;BME280;56589;51.992;5.924;2022-08-16T07:33:16;100214.94;;;27.22;42.14
69402;BME280;56589;51.992;5.924;2022-08-16T07:35:42;100218.44;;;27.04;42.52
69402;BME280;56589;51.992;5.924;2022-08-16T07:38:09;100219.34;;;26.91;42.41
69402;BME280;56589;51.992;5.924;2022-08-16T07:40:37;100220.50;;;26.77;43.02
69402;BME280;56589;51.992;5.924;2022-08-16T07:43:04;100225.91;;;26.77;43.60
69402;BME280;56589;51.992;5.924;2022-08-16T07:45:30;100220.72;;;26.75;42.99
69402;BME280;56589;51.992;5.924;2022-08-16T07:47:56;100225.28;;;26.68;42.75
69402;BME280;56589;51.992;5.924;2022-08-16T07:50:22;100230.13;;;26.59;43.40
69402;BME280;56589;51.992;5.924;2022-08-16T07:52:48;100224.78;;;26.53;43.75
69402;BME280;56589;51.992;5.924;2022-08-16T07:55:16;100223.13;;;26.52;43.48
69402;BME280;56589;51.992;5.924;2022-08-16T07:57:45;100225.59;;;26.53;43.87
69402;BME280;56589;51.992;5.924;2022-08-16T08:00:12;100232.00;;;26.59;43.46
69402;BME280;56589;51.992;5.924;2022-08-16T08:02:38;100225.97;;;26.64;43.56
69402;BME280;56589;51.992;5.924;2022-08-16T08:05:05;100230.72;;;26.62;43.57
69402;BME280;56589;51.992;5.924;2022-08-16T08:07:31;100235.28;;;26.61;43.82
69402;BME280;56589;51.992;5.924;2022-08-16T08:09:57;100240.47;;;26.69;43.81
69402;BME280;56589;51.992;5.924;2022-08-16T08:12:23;100239.59;;;26.75;43.26
69402;BME280;56589;51.992;5.924;2022-08-16T08:14:51;100235.91;;;26.70;43.11
69402;BME280;56589;51.992;5.924;2022-08-16T08:17:17;100245.19;;;26.67;43.21
69402;BME280;56589;51.992;5.924;2022-08-16T08:19:43;100240.03;;;26.66;43.10
69402;BME280;56589;51.992;5.924;2022-08-16T08:22:09;100237.97;;;26.61;43.12
69402;BME280;56589;51.992;5.924;2022-08-16T08:24:35;100244.19;;;26.62;42.63
69402;BME280;56589;51.992;5.924;2022-08-16T08:27:01;100240.47;;;26.69;42.47
69402;BME280;56589;51.992;5.924;2022-08-16T08:29:28;100250.69;;;26.85;42.62
69402;BME280;56589;51.992;5.924;2022-08-16T08:31:57;100253.91;;;27.01;42.37
69402;BME280;56589;51.992;5.924;2022-08-16T08:34:23;100255.66;;;27.14;42.13
69402;BME280;56589;51.992;5.924;2022-08-16T08:36:48;100259.53;;;27.24;41.62
69402;BME280;56589;51.992;5.924;2022-08-16T08:39:14;100264.84;;;27.37;41.13
69402;BME280;56589;51.992;5.924;2022-08-16T08:41:40;100262.25;;;27.49;41.26
69402;BME280;56589;51.992;5.924;2022-08-16T08:44:07;100266.13;;;27.53;41.38
69402;BME280;56589;51.992;5.924;2022-08-16T08:46:33;100261.50;;;27.60;41.01
69402;BME280;56589;51.992;5.924;2022-08-16T08:49:02;100264.88;;;27.74;40.95
69402;BME280;56589;51.992;5.924;2022-08-16T08:51:29;100264.34;;;27.84;40.64
69402;BME280;56589;51.992;5.924;2022-08-16T08:53:55;100253.66;;;27.96;40.71
69402;BME280;56589;51.992;5.924;2022-08-16T08:56:21;100259.06;;;28.14;40.47
69402;BME280;56589;51.992;5.924;2022-08-16T08:58:47;100255.59;;;28.25;40.33
69402;BME280;56589;51.992;5.924;2022-08-16T09:01:13;100252.31;;;28.23;40.33
69402;BME280;56589;51.992;5.924;2022-08-16T09:03:40;100255.44;;;28.20;40.50
69402;BME280;56589;51.992;5.924;2022-08-16T09:06:09;100253.38;;;28.22;40.82
69402;BME280;56589;51.992;5.924;2022-08-16T09:08:35;100263.25;;;28.28;40.08
69402;BME280;56589;51.992;5.924;2022-08-16T09:11:00;100267.00;;;28.27;40.52
69402;BME280;56589;51.992;5.924;2022-08-16T09:13:26;100261.22;;;28.24;40.12
69402;BME280;56589;51.992;5.924;2022-08-16T09:15:53;100260.19;;;28.25;40.62
69402;BME280;56589;51.992;5.924;2022-08-16T09:18:20;100265.81;;;28.23;40.37
69402;BME280;56589;51.992;5.924;2022-08-16T09:20:46;100265.34;;;28.26;40.91
69402;BME280;56589;51.992;5.924;2022-08-16T09:23:15;100264.00;;;28.35;40.73
69402;BME280;56589;51.992;5.924;2022-08-16T09:25:41;100267.66;;;28.41;40.33
69402;BME280;56589;51.992;5.924;2022-08-16T09:28:06;100272.16;;;28.47;40.61
69402;BME280;56589;51.992;5.924;2022-08-16T09:30:32;100267.66;;;28.59;40.78
69402;BME280;56589;51.992;5.924;2022-08-16T09:32:58;100270.44;;;28.94;40.52
69402;BME280;56589;51.992;5.924;2022-08-16T09:35:24;100270.28;;;29.55;40.15
69402;BME280;56589;51.992;5.924;2022-08-16T09:37:49;100272.97;;;30.25;39.04
69402;BME280;56589;51.992;5.924;2022-08-16T09:40:18;100273.06;;;30.87;38.32
69402;BME280;56589;51.992;5.924;2022-08-16T09:42:44;100270.38;;;31.38;37.34
69402;BME280;56589;51.992;5.924;2022-08-16T09:45:10;100274.53;;;31.79;36.67
69402;BME280;56589;51.992;5.924;2022-08-16T09:47:36;100277.41;;;32.11;35.59
69402;BME280;56589;51.992;5.924;2022-08-16T09:50:02;100276.34;;;32.39;35.50
69402;BME280;56589;51.992;5.924;2022-08-16T09:52:28;100270.97;;;32.66;34.78
69402;BME280;56589;51.992;5.924;2022-08-16T09:54:54;100281.38;;;32.74;33.75
69402;BME280;56589;51.992;5.924;2022-08-16T09:57:22;100282.81;;;32.55;33.78
69402;BME280;56589;51.992;5.924;2022-08-16T09:59:48;100285.03;;;32.36;33.95
69402;BME280;56589;51.992;5.924;2022-08-16T10:02:14;100285.91;;;32.20;33.47
69402;BME280;56589;51.992;5.924;2022-08-16T10:04:39;100286.63;;;32.10;33.94
69402;BME280;56589;51.992;5.924;2022-08-16T10:07:05;100287.38;;;32.27;33.96
69402;BME280;56589;51.992;5.924;2022-08-16T10:09:31;100283.56;;;32.50;33.59
69402;BME280;56589;51.992;5.924;2022-08-16T10:11:57;100275.53;;;32.60;32.87
69402;BME280;56589;51.992;5.924;2022-08-16T10:14:26;100280.00;;;32.72;32.65
69402;BME280;56589;51.992;5.924;2022-08-16T10:16:53;100284.41;;;32.78;32.77
69402;BME280;56589;51.992;5.924;2022-08-16T10:19:20;100286.66;;;32.86;32.62
69402;BME280;56589;51.992;5.924;2022-08-16T10:21:46;100276.03;;;32.84;32.48
69402;BME280;56589;51.992;5.924;2022-08-16T10:24:11;100274.31;;;32.73;32.45
69402;BME280;56589;51.992;5.924;2022-08-16T10:26:37;100284.72;;;32.54;33.05
69402;BME280;56589;51.992;5.924;2022-08-16T10:29:03;100286.75;;;32.42;33.08
69402;BME280;56589;51.992;5.924;2022-08-16T10:31:32;100292.22;;;32.25;32.90
69402;BME280;56589;51.992;5.924;2022-08-16T10:33:59;100291.84;;;31.95;33.44
69402;BME280;56589;51.992;5.924;2022-08-16T10:36:25;100287.75;;;31.75;33.46
69402;BME280;56589;51.992;5.924;2022-08-16T10:38:51;100290.50;;;31.58;33.57
69402;BME280;56589;51.992;5.924;2022-08-16T10:41:17;100297.75;;;31.53;33.61
69402;BME280;56589;51.992;5.924;2022-08-16T10:43:43;100296.91;;;31.52;33.77
69402;BME280;56589;51.992;5.924;2022-08-16T10:46:11;100299.88;;;31.51;33.84
69402;BME280;56589;51.992;5.924;2022-08-16T10:48:42;100300.41;;;31.48;33.42
69402;BME280;56589;51.992;5.924;2022-08-16T10:51:10;100297.44;;;31.49;33.74
69402;BME280;56589;51.992;5.924;2022-08-16T10:53:36;100303.13;;;31.48;33.91
69402;BME280;56589;51.992;5.924;2022-08-16T10:56:06;100300.94;;;31.33;33.76
69402;BME280;56589;51.992;5.924;2022-08-16T10:58:34;100303.56;;;31.28;34.31
69402;BME280;56589;51.992;5.924;2022-08-16T11:01:01;100304.50;;;31.33;34.02
69402;BME280;56589;51.992;5.924;2022-08-16T11:03:28;100304.28;;;31.35;33.95
69402;BME280;56589;51.992;5.924;2022-08-16T11:05:56;100306.38;;;31.33;33.53
69402;BME280;56589;51.992;5.924;2022-08-16T11:08:22;100304.06;;;31.25;33.66
69402;BME280;56589;51.992;5.924;2022-08-16T11:10:48;100305.78;;;31.14;33.62
69402;BME280;56589;51.992;5.924;2022-08-16T11:13:17;100305.53;;;31.16;33.33
69402;BME280;56589;51.992;5.924;2022-08-16T11:15:44;100306.03;;;31.13;33.36
69402;BME280;56589;51.992;5.924;2022-08-16T11:18:11;100305.31;;;31.17;33.14
69402;BME280;56589;51.992;5.924;2022-08-16T11:20:38;100308.44;;;31.26;33.51
69402;BME280;56589;51.992;5.924;2022-08-16T11:23:08;100304.72;;;31.32;33.27
69402;BME280;56589;51.992;5.924;2022-08-16T11:25:34;100315.69;;;31.37;32.98
69402;BME280;56589;51.992;5.924;2022-08-16T11:28:00;100308.94;;;31.40;32.70
69402;BME280;56589;51.992;5.924;2022-08-16T11:30:29;100315.84;;;31.30;32.53
69402;BME280;56589;51.992;5.924;2022-08-16T11:32:55;100318.38;;;31.20;32.79
69402;BME280;56589;51.992;5.924;2022-08-16T11:35:24;100319.34;;;31.14;32.81
69402;BME280;56589;51.992;5.924;2022-08-16T11:37:57;100321.25;;;31.14;32.92
69402;BME280;56589;51.992;5.924;2022-08-16T11:40:30;100319.78;;;31.23;33.16
69402;BME280;56589;51.992;5.924;2022-08-16T11:42:59;100319.63;;;31.46;33.06
69402;BME280;56589;51.992;5.924;2022-08-16T11:45:25;100329.56;;;31.74;32.45
69402;BME280;56589;51.992;5.924;2022-08-16T11:47:51;100334.41;;;31.89;32.20
69402;BME280;56589;51.992;5.924;2022-08-16T11:50:17;100327.34;;;31.88;32.29
69402;BME280;56589;51.992;5.924;2022-08-16T11:52:43;100331.22;;;31.92;32.54
69402;BME280;56589;51.992;5.924;2022-08-16T11:55:11;100342.88;;;31.93;32.36
69402;BME280;56589;51.992;5.924;2022-08-16T11:57:40;100340.16;;;31.93;32.36
69402;BME280;56589;51.992;5.924;2022-08-16T12:00:09;100349.63;;;31.90;32.51
69402;BME280;56589;51.992;5.924;2022-08-16T12:02:39;100345.94;;;31.79;32.75
69402;BME280;56589;51.992;5.924;2022-08-16T12:05:06;100343.31;;;31.68;32.89
69402;BME280;56589;51.992;5.924;2022-08-16T12:07:35;100345.19;;;31.67;33.14
69402;BME280;56589;51.992;5.924;2022-08-16T12:10:01;100343.38;;;31.73;33.04
69402;BME280;56589;51.992;5.924;2022-08-16T12:12:29;100345.94;;;31.79;32.79
69402;BME280;56589;51.992;5.924;2022-08-16T12:14:57;100340.09;;;31.71;33.12
69402;BME280;56589;51.992;5.924;2022-08-16T12:17:23;100341.03;;;31.59;33.06
69402;BME280;56589;51.992;5.924;2022-08-16T12:19:48;100335.44;;;31.49;32.80
69402;BME280;56589;51.992;5.924;2022-08-16T12:22:14;100336.97;;;31.45;32.73
69402;BME280;56589;51.992;5.924;2022-08-16T12:24:40;100346.09;;;31.39;32.61
69402;BME280;56589;51.992;5.924;2022-08-16T12:27:06;100351.34;;;31.29;32.94
69402;BME280;56589;51.992;5.924;2022-08-16T12:29:32;100343.75;;;31.14;33.21
69402;BME280;56589;51.992;5.924;2022-08-16T12:32:00;100346.53;;;31.02;33.34
69402;BME280;56589;51.992;5.924;2022-08-16T12:34:26;100349.56;;;30.89;33.64
69402;BME280;56589;51.992;5.924;2022-08-16T12:36:52;100351.03;;;30.80;33.91
69402;BME280;56589;51.992;5.924;2022-08-16T12:39:18;100356.78;;;30.72;34.21
69402;BME280;56589;51.992;5.924;2022-08-16T12:41:44;100350.69;;;30.65;34.33
69402;BME280;56589;51.992;5.924;2022-08-16T12:44:09;100352.81;;;30.63;34.80
69402;BME280;56589;51.992;5.924;2022-08-16T12:46:35;100362.84;;;30.62;34.56
69402;BME280;56589;51.992;5.924;2022-08-16T12:49:03;100355.75;;;30.61;34.66